createdAt,value
2023-01-13T00:04:05.313Z,94.50
2023-01-13T00:09:07.022Z,94.16
2023-01-13T00:14:08.812Z,94.65
2023-01-13T00:19:10.573Z,94.27
2023-01-13T00:24:12.346Z,94.59
2023-01-13T00:29:14.181Z,94.82
2023-01-13T00:34:15.942Z,94.41
2023-01-13T00:39:17.680Z,94.39
2023-01-13T00:44:19.660Z,94.38
2023-01-13T00:49:21.391Z,94.25
2023-01-13T00:54:23.186Z,94.30
2023-01-13T00:59:25.068Z,94.88
2023-01-13T01:04:26.862Z,93.83
2023-01-13T01:09:32.939Z,94.28
2023-01-13T01:14:34.940Z,94.02
2023-01-13T01:19:39.848Z,94.13
2023-01-13T01:24:41.652Z,93.50
2023-01-13T01:29:43.439Z,94.13
2023-01-13T01:34:45.215Z,94.57
2023-01-13T01:39:46.969Z,94.28
2023-01-13T01:44:56.517Z,94.30
2023-01-13T01:49:58.951Z,94.59
2023-01-13T01:55:14.097Z,93.87
2023-01-13T02:00:16.102Z,93.72
2023-01-13T02:05:18.156Z,94.15
2023-01-13T02:10:27.733Z,94.16
2023-01-13T02:16:17.978Z,94.25
2023-01-13T02:21:48.172Z,94.04
2023-01-13T02:27:23.925Z,94.28
2023-01-13T02:32:36.070Z,94.26
2023-01-13T02:37:42.470Z,93.86
2023-01-13T02:43:18.353Z,93.87
2023-01-13T02:48:23.263Z,93.66
2023-01-13T02:53:59.869Z,95.34
2023-01-13T02:59:02.405Z,94.06
2023-01-13T03:04:14.609Z,94.94
2023-01-13T03:09:33.021Z,95.22
2023-01-13T03:14:47.953Z,94.20
2023-01-13T03:20:05.378Z,94.64
2023-01-13T03:25:24.144Z,94.81
2023-01-13T03:30:44.692Z,96.15
2023-01-13T03:35:52.011Z,94.22
2023-01-13T03:41:01.422Z,94.35
2023-01-13T03:46:10.033Z,95.21
2023-01-13T03:51:16.599Z,95.14
2023-01-13T03:56:26.970Z,95.82
2023-01-13T04:01:42.813Z,95.38
2023-01-13T04:06:54.709Z,95.89
2023-01-13T04:12:04.105Z,95.23
2023-01-13T04:17:05.945Z,96.83
2023-01-13T04:22:07.610Z,96.44
2023-01-13T04:27:10.485Z,97.25
2023-01-13T04:32:12.684Z,96.25
2023-01-13T04:37:14.326Z,95.97
2023-01-13T04:42:16.005Z,98.46
2023-01-13T04:47:17.740Z,97.12
2023-01-13T04:52:19.517Z,97.63
2023-01-13T04:57:21.471Z,98.15
2023-01-13T05:02:23.179Z,96.31
2023-01-13T05:07:24.949Z,96.50
2023-01-13T05:12:45.433Z,97.20
2023-01-13T05:17:47.654Z,96.24
2023-01-13T05:23:08.114Z,96.99
2023-01-13T05:28:10.201Z,96.38
2023-01-13T05:33:15.615Z,96.85
2023-01-13T05:38:18.216Z,96.74
2023-01-13T05:43:24.862Z,97.00
2023-01-13T05:48:27.837Z,96.23
2023-01-13T05:53:30.184Z,96.92
2023-01-13T05:58:32.002Z,96.14
2023-01-13T06:03:33.800Z,96.76
2023-01-13T06:08:36.499Z,96.41
2023-01-13T06:13:39.160Z,96.77
2023-01-13T06:18:40.881Z,96.85
2023-01-13T06:23:42.553Z,96.19
2023-01-13T06:28:44.641Z,96.04
2023-01-13T06:33:50.661Z,96.51
2023-01-13T06:38:57.057Z,96.96
2023-01-13T06:43:58.851Z,96.92
2023-01-13T06:49:00.592Z,97.04
2023-01-13T06:54:02.357Z,96.66
2023-01-13T06:59:04.204Z,96.69
2023-01-13T07:04:05.887Z,97.79
2023-01-13T07:09:07.621Z,97.01
2023-01-13T07:14:27.881Z,97.23
2023-01-13T07:19:29.583Z,97.27
2023-01-13T07:24:31.331Z,97.61
2023-01-13T07:29:33.039Z,96.99
2023-01-13T07:34:34.945Z,96.97
2023-01-13T07:39:36.768Z,96.97
2023-01-13T07:44:38.493Z,96.94
2023-01-13T07:49:40.302Z,96.33
2023-01-13T07:54:42.096Z,96.36
2023-01-13T07:59:43.848Z,96.48
2023-01-13T08:04:45.631Z,96.68
2023-01-13T08:09:47.410Z,97.25
2023-01-13T08:14:50.299Z,96.14
2023-01-13T08:19:52.121Z,96.37
2023-01-13T08:24:53.886Z,95.98
2023-01-13T08:29:55.625Z,96.29
2023-01-13T08:34:58.314Z,96.76
2023-01-13T08:40:00.059Z,96.73
2023-01-13T08:45:01.924Z,97.06
2023-01-13T08:50:04.663Z,98.21
2023-01-13T08:55:07.127Z,97.65
2023-01-13T09:00:09.505Z,97.62
2023-01-13T09:05:11.875Z,97.70
2023-01-13T09:10:13.636Z,97.71
2023-01-13T09:15:18.555Z,96.99
2023-01-13T09:20:20.550Z,97.19
2023-01-13T09:25:22.535Z,96.51
2023-01-13T09:30:25.069Z,96.76
2023-01-13T09:35:26.855Z,96.58
2023-01-13T09:40:28.651Z,97.04
2023-01-13T09:45:45.951Z,97.50
2023-01-13T09:50:57.406Z,97.80
2023-01-13T09:55:59.661Z,97.08
2023-01-13T10:01:20.897Z,97.37
2023-01-13T10:06:44.271Z,97.43
2023-01-13T10:12:07.164Z,97.01
2023-01-13T10:17:08.989Z,97.01
2023-01-13T10:22:29.621Z,97.79
2023-01-13T10:27:35.243Z,96.15
2023-01-13T10:32:37.005Z,95.52
2023-01-13T10:37:38.799Z,95.14
2023-01-13T10:42:41.833Z,94.58
2023-01-13T10:47:43.508Z,94.29
2023-01-13T10:52:57.397Z,92.97
2023-01-13T10:58:18.713Z,93.89
2023-01-13T11:03:25.131Z,92.21
2023-01-13T11:08:44.019Z,91.51
2023-01-13T11:14:05.601Z,93.25
2023-01-13T11:19:17.279Z,91.59
2023-01-13T11:24:25.675Z,93.26
2023-01-13T11:29:34.059Z,93.37
2023-01-13T11:34:39.757Z,91.59
2023-01-13T11:40:00.757Z,92.95
2023-01-13T11:45:02.398Z,92.24
2023-01-13T11:50:14.657Z,91.23
2023-01-13T11:55:34.681Z,92.21
2023-01-13T12:01:02.900Z,93.11
2023-01-13T12:06:49.539Z,92.07
2023-01-13T12:12:33.054Z,92.73
2023-01-13T12:17:52.622Z,92.99
2023-01-13T12:22:59.844Z,93.33
2023-01-13T12:28:11.893Z,93.49
2023-01-13T12:33:33.999Z,94.33
2023-01-13T12:38:56.885Z,94.20
2023-01-13T12:44:17.143Z,94.23
2023-01-13T12:49:29.498Z,94.20
2023-01-13T12:54:53.367Z,94.64
2023-01-13T13:00:04.029Z,94.67
2023-01-13T13:05:14.905Z,94.50
2023-01-13T13:10:16.605Z,94.08
2023-01-13T13:15:24.001Z,94.40
2023-01-13T13:21:04.549Z,94.56
2023-01-13T13:26:20.333Z,94.99
2023-01-13T13:31:31.052Z,95.34
2023-01-13T13:36:41.905Z,95.12
2023-01-13T13:42:06.660Z,96.13
2023-01-13T13:47:08.384Z,95.38
2023-01-13T13:52:27.950Z,95.81
2023-01-13T13:57:39.416Z,95.64
2023-01-13T14:02:48.770Z,95.91
2023-01-13T14:08:02.116Z,96.01
2023-01-13T14:13:25.151Z,96.24
2023-01-13T14:18:29.507Z,96.31
2023-01-13T14:23:33.701Z,96.75
2023-01-13T14:28:40.381Z,97.07
2023-01-13T14:33:48.214Z,97.48
2023-01-13T14:39:14.904Z,97.59
2023-01-13T14:44:29.161Z,97.35
2023-01-13T14:49:41.631Z,97.83
2023-01-13T14:54:43.223Z,98.04
2023-01-13T14:59:44.821Z,97.64
2023-01-13T15:04:46.553Z,97.75
2023-01-13T15:09:56.626Z,98.19
2023-01-13T15:14:58.350Z,98.53
2023-01-13T15:20:01.532Z,98.64
2023-01-13T15:25:03.250Z,99.02
2023-01-13T15:30:21.504Z,98.64
2023-01-13T15:35:24.975Z,98.25
2023-01-13T15:40:31.904Z,99.21
2023-01-13T15:45:55.030Z,99.63
2023-01-13T15:50:56.745Z,99.88
2023-01-13T15:55:59.085Z,99.66
2023-01-13T16:01:00.843Z,99.80
2023-01-13T16:06:02.568Z,99.98
2023-01-13T16:11:04.363Z,100.00
2023-01-13T16:16:25.282Z,100.00
2023-01-13T16:21:27.045Z,100.00
2023-01-13T16:26:30.459Z,96.88
2023-01-13T16:31:33.763Z,97.49
2023-01-13T16:36:37.091Z,97.55
2023-01-13T16:41:38.750Z,98.07
2023-01-13T16:46:40.841Z,97.51
2023-01-13T16:51:42.627Z,97.84
2023-01-13T16:56:44.557Z,98.48
2023-01-13T17:01:46.513Z,100.00
2023-01-13T17:06:58.628Z,98.97
2023-01-13T17:12:00.694Z,99.42
2023-01-13T17:17:02.395Z,99.03
2023-01-13T17:22:04.248Z,98.57
2023-01-13T17:27:06.811Z,99.89
2023-01-13T17:32:14.414Z,100.00
2023-01-13T17:37:16.559Z,97.83
2023-01-13T17:42:18.727Z,97.99
2023-01-13T17:47:20.546Z,97.99
2023-01-13T17:52:22.491Z,98.88
2023-01-13T17:57:24.561Z,98.67
2023-01-13T18:02:26.640Z,98.33
2023-01-13T18:07:28.645Z,98.75
2023-01-13T18:12:30.471Z,98.68
2023-01-13T18:17:32.548Z,98.45
2023-01-13T18:22:53.380Z,98.71
2023-01-13T18:27:55.662Z,98.91
2023-01-13T18:32:58.218Z,99.19
2023-01-13T18:37:59.992Z,99.14
2023-01-13T18:43:01.991Z,99.48
2023-01-13T18:48:05.704Z,98.76
2023-01-13T18:53:08.420Z,99.32
2023-01-13T18:58:10.957Z,99.56
2023-01-13T19:03:13.142Z,99.69
2023-01-13T19:08:15.787Z,99.89
2023-01-13T19:13:19.010Z,100.00
2023-01-13T19:18:24.417Z,99.63
2023-01-13T19:23:26.142Z,99.53
2023-01-13T19:28:28.477Z,98.91
2023-01-13T19:33:34.067Z,99.36
2023-01-13T19:38:37.867Z,98.69
2023-01-13T19:43:58.205Z,99.16
2023-01-13T19:49:00.242Z,99.33
2023-01-13T19:54:02.590Z,99.05
2023-01-13T19:59:04.942Z,98.95
2023-01-13T20:04:14.396Z,98.63
2023-01-13T20:09:16.402Z,99.10
2023-01-13T20:14:19.383Z,100.00
2023-01-13T20:19:21.418Z,100.00
2023-01-13T20:24:26.169Z,100.00
2023-01-13T20:29:28.740Z,100.00
2023-01-13T20:34:31.239Z,100.00
2023-01-13T20:39:34.850Z,100.00
2023-01-13T20:44:36.747Z,100.00
2023-01-13T20:49:39.139Z,100.00
2023-01-13T20:54:41.382Z,100.00
2023-01-13T20:59:43.229Z,100.00
2023-01-13T21:04:45.055Z,100.00
2023-01-13T21:09:47.035Z,100.00
2023-01-13T21:15:07.237Z,100.00
2023-01-13T21:20:11.351Z,99.66
2023-01-13T21:25:14.273Z,100.00
2023-01-13T21:30:17.140Z,100.00
2023-01-13T21:35:18.971Z,100.00
2023-01-13T21:40:20.793Z,100.00
2023-01-13T21:45:41.394Z,100.00
2023-01-13T21:50:43.154Z,100.00
2023-01-13T21:55:44.833Z,100.00
2023-01-13T22:00:49.322Z,100.00
2023-01-13T22:05:55.807Z,99.79
2023-01-13T22:10:58.236Z,100.00
2023-01-13T22:16:04.459Z,100.00
2023-01-13T22:21:06.481Z,99.93
2023-01-13T22:26:08.334Z,100.00
2023-01-13T22:31:15.402Z,100.00
2023-01-13T22:36:17.149Z,100.00
2023-01-13T22:41:18.931Z,100.00
2023-01-13T22:46:20.605Z,100.00
2023-01-13T22:51:22.977Z,100.00
2023-01-13T22:56:25.905Z,100.00
2023-01-13T23:01:29.573Z,99.84
2023-01-13T23:06:33.332Z,100.00
2023-01-13T23:11:35.457Z,99.81
2023-01-13T23:16:39.484Z,99.96
2023-01-13T23:21:41.149Z,99.81
2023-01-13T23:26:42.799Z,100.00
2023-01-13T23:31:44.476Z,99.42
2023-01-13T23:36:46.236Z,99.88
2023-01-13T23:41:47.926Z,99.99
2023-01-13T23:46:49.657Z,99.72
2023-01-13T23:51:52.114Z,99.87
2023-01-13T23:56:53.832Z,99.90
